Time;durP1;ratioP1;P1;durP2;ratioP2;P2;SDS_P1;SDS_P2;PMS_P1;PMS_P2;Temp;Humidity;BMP_temperature;BMP_pressure;BME280_temperature;BME280_humidity;BME280_pressure;Samples;Min_cycle;Max_cycle;Signal;HPM_P1;HPM_P2
2021/03/27 00:00:36;;;;;;;11.48;6.43;;;;;;;;;;5093133;28;20066;-77
2021/03/27 00:03:34;;;;;;;9.90;6.80;;;;;;;;;;5092936;28;20127;-76
2021/03/27 00:06:05;;;;;;;11.77;7.75;;;;;;;;;;5091861;28;20062;-76
2021/03/27 00:08:45;;;;;;;12.35;7.72;;;;;;;;;;5093016;28;20554;-76
2021/03/27 00:11:16;;;;;;;14.55;8.90;;;;;;;;;;5092868;28;20028;-77
2021/03/27 00:14:03;;;;;;;15.55;7.65;;;;;;;;;;5093037;28;20528;-77
2021/03/27 00:16:46;;;;;;;10.77;7.00;;;;;;;;;;5093024;28;20452;-76
2021/03/27 00:19:35;;;;;;;14.13;8.23;;;;;;;;;;5092751;28;20394;-77
2021/03/27 00:22:15;;;;;;;11.68;6.18;;;;;;;;;;5092860;28;20472;-77
2021/03/27 00:25:02;;;;;;;8.75;5.80;;;;;;;;;;5091770;28;20028;-76
2021/03/27 00:27:35;;;;;;;10.95;6.65;;;;;;;;;;5091392;28;20059;-77
2021/03/27 00:30:06;;;;;;;12.57;6.78;;;;;;;;;;5093039;28;20032;-76
2021/03/27 00:32:38;;;;;;;10.32;5.95;;;;;;;;;;5092649;28;20426;-76
2021/03/27 00:35:10;;;;;;;17.02;5.97;;;;;;;;;;5093029;28;20043;-76
2021/03/27 00:37:38;;;;;;;8.68;6.15;;;;;;;;;;5092674;28;20127;-76
2021/03/27 00:40:07;;;;;;;11.70;6.85;;;;;;;;;;5092660;28;20050;-76
2021/03/27 00:42:39;;;;;;;7.90;5.68;;;;;;;;;;5092733;28;20059;-76
2021/03/27 00:45:12;;;;;;;11.60;6.13;;;;;;;;;;5091630;28;20063;-76
2021/03/27 00:47:42;;;;;;;8.80;6.93;;;;;;;;;;5092084;28;20028;-76
2021/03/27 00:50:08;;;;;;;13.63;7.97;;;;;;;;;;5092759;28;20077;-76
2021/03/27 00:52:38;;;;;;;15.77;9.43;;;;;;;;;;5093387;28;20032;-76
2021/03/27 00:55:11;;;;;;;13.13;8.32;;;;;;;;;;5095107;28;20035;-76
2021/03/27 00:57:41;;;;;;;13.82;7.63;;;;;;;;;;5094854;28;20024;-76
2021/03/27 01:00:24;;;;;;;15.00;8.48;;;;;;;;;;5095018;28;20032;-77
2021/03/27 01:03:27;;;;;;;13.93;7.90;;;;;;;;;;5095565;28;20402;-76
2021/03/27 01:06:18;;;;;;;12.15;7.35;;;;;;;;;;5095912;28;20127;-76
2021/03/27 01:09:06;;;;;;;11.00;7.60;;;;;;;;;;5095798;28;20028;-76
2021/03/27 01:11:41;;;;;;;12.68;9.02;;;;;;;;;;5096372;28;20554;-76
2021/03/27 01:14:15;;;;;;;18.97;8.53;;;;;;;;;;5094827;28;20050;-76
2021/03/27 01:16:47;;;;;;;13.50;9.23;;;;;;;;;;5095726;28;20277;-76
2021/03/27 01:19:17;;;;;;;15.10;7.85;;;;;;;;;;5095357;28;20029;-76
2021/03/27 01:21:45;;;;;;;10.05;7.00;;;;;;;;;;5095720;28;20040;-76
2021/03/27 01:24:13;;;;;;;10.15;7.07;;;;;;;;;;5095829;28;20035;-76
2021/03/27 01:26:42;;;;;;;13.75;7.45;;;;;;;;;;5095504;28;20036;-76
2021/03/27 01:29:11;;;;;;;12.43;6.82;;;;;;;;;;5095681;28;20534;-76
2021/03/27 01:31:54;;;;;;;13.88;7.85;;;;;;;;;;5095581;28;20547;-76
2021/03/27 01:34:28;;;;;;;11.60;6.85;;;;;;;;;;5094283;28;20434;-76
2021/03/27 01:37:17;;;;;;;9.02;6.63;;;;;;;;;;5094204;28;20472;-76
2021/03/27 01:40:05;;;;;;;12.80;8.45;;;;;;;;;;5095524;28;20032;-76
2021/03/27 01:42:54;;;;;;;15.43;7.95;;;;;;;;;;5095190;28;20036;-76
2021/03/27 01:45:20;;;;;;;14.55;7.97;;;;;;;;;;5095489;28;20390;-76
2021/03/27 01:47:55;;;;;;;14.32;8.18;;;;;;;;;;5095024;28;20032;-76
2021/03/27 01:50:33;;;;;;;11.90;7.35;;;;;;;;;;5095291;28;20036;-76
2021/03/27 01:53:14;;;;;;;14.57;8.40;;;;;;;;;;5093626;28;20036;-76
2021/03/27 01:56:18;;;;;;;12.82;7.65;;;;;;;;;;5094983;28;20036;-76
2021/03/27 01:58:52;;;;;;;11.73;7.07;;;;;;;;;;5094866;28;20083;-75
2021/03/27 02:01:32;;;;;;;14.30;7.85;;;;;;;;;;5094881;28;20130;-76
2021/03/27 02:04:18;;;;;;;16.45;8.27;;;;;;;;;;5094562;28;20089;-76
2021/03/27 02:07:00;;;;;;;13.18;6.82;;;;;;;;;;5094682;28;20378;-76
2021/03/27 02:09:38;;;;;;;11.70;7.22;;;;;;;;;;5094714;28;20032;-76
2021/03/27 02:12:14;;;;;;;14.02;6.90;;;;;;;;;;5094920;28;20032;-76
2021/03/27 02:14:58;;;;;;;13.77;8.10;;;;;;;;;;5094535;28;20083;-76
2021/03/27 02:17:55;;;;;;;12.50;7.68;;;;;;;;;;5094381;28;20078;-76
2021/03/27 02:20:33;;;;;;;;;;;;;;;;;;5095274;28;20044;-76
2021/03/27 02:23:15;;;;;;;12.25;7.10;;;;;;;;;;5094702;28;19912;-76
2021/03/27 02:26:14;;;;;;;13.05;6.80;;;;;;;;;;5094704;28;20040;-76
2021/03/27 02:29:06;;;;;;;13.43;8.13;;;;;;;;;;5094135;28;20040;-76
2021/03/27 02:31:40;;;;;;;13.90;8.82;;;;;;;;;;5094497;28;20054;-76
2021/03/27 02:34:30;;;;;;;15.00;8.50;;;;;;;;;;5094494;28;20039;-76
2021/03/27 02:37:05;;;;;;;15.43;9.50;;;;;;;;;;5092856;28;20040;-76
2021/03/27 02:39:49;;;;;;;12.88;8.18;;;;;;;;;;5094148;28;20127;-76
2021/03/27 02:42:24;;;;;;;12.65;7.40;;;;;;;;;;5094203;28;20035;-76
2021/03/27 02:45:01;;;;;;;12.43;8.25;;;;;;;;;;5094111;28;20076;-76
2021/03/27 02:47:32;;;;;;;12.70;7.68;;;;;;;;;;5093821;28;20474;-76
2021/03/27 02:50:15;;;;;;;11.73;6.65;;;;;;;;;;5094223;28;20050;-76
2021/03/27 02:52:51;;;;;;;17.42;6.82;;;;;;;;;;5094133;28;20032;-76
2021/03/27 02:55:23;;;;;;;10.90;6.75;;;;;;;;;;5094021;28;20402;-76
2021/03/27 02:58:03;;;;;;;10.82;6.70;;;;;;;;;;5092620;28;20035;-76
2021/03/27 03:00:41;;;;;;;10.75;5.93;;;;;;;;;;5093925;28;20032;-76
2021/03/27 03:03:25;;;;;;;14.23;6.78;;;;;;;;;;5092410;28;20047;-76
2021/03/27 03:06:00;;;;;;;10.80;7.35;;;;;;;;;;5093594;28;20036;-76
2021/03/27 03:08:29;;;;;;;10.25;6.35;;;;;;;;;;5093749;28;20076;-76
2021/03/27 03:11:08;;;;;;;8.27;6.00;;;;;;;;;;5093739;28;20035;-76
2021/03/27 03:13:48;;;;;;;7.88;5.70;;;;;;;;;;5093468;28;20043;-76
2021/03/27 03:16:15;;;;;;;11.00;6.57;;;;;;;;;;5093066;28;20032;-76
2021/03/27 03:19:02;;;;;;;8.68;5.72;;;;;;;;;;5093341;28;20047;-76
2021/03/27 03:21:35;;;;;;;15.43;5.53;;;;;;;;;;5093664;28;20040;-76
2021/03/27 03:24:25;;;;;;;11.70;5.35;;;;;;;;;;5093614;28;20123;-76
2021/03/27 03:27:08;;;;;;;7.70;4.90;;;;;;;;;;5093273;28;20105;-76
2021/03/27 03:30:17;;;;;;;10.13;4.90;;;;;;;;;;5093599;28;20043;-76
2021/03/27 03:33:01;;;;;;;6.60;4.70;;;;;;;;;;5070772;28;20048;-76
2021/03/27 03:35:51;;;;;;;5.60;4.60;;;;;;;;;;5091439;28;20052;-76
2021/03/27 03:38:50;;;;;;;6.80;4.63;;;;;;;;;;5093220;28;20088;-76
2021/03/27 03:41:15;;;;;;;7.40;5.10;;;;;;;;;;5093081;28;20040;-76
2021/03/27 03:43:58;;;;;;;7.20;5.72;;;;;;;;;;5093205;28;20100;-76
2021/03/27 03:46:26;;;;;;;7.18;6.15;;;;;;;;;;5093393;28;20043;-76
2021/03/27 03:49:04;;;;;;;7.30;6.35;;;;;;;;;;5092854;28;20028;-76
2021/03/27 03:51:40;;;;;;;9.68;6.57;;;;;;;;;;5093453;28;20459;-76
2021/03/27 03:54:24;;;;;;;7.37;6.27;;;;;;;;;;5092030;28;20032;-76
2021/03/27 03:57:11;;;;;;;7.50;5.78;;;;;;;;;;5093149;28;20046;-76
2021/03/27 03:59:55;;;;;;;4.88;4.38;;;;;;;;;;5092972;28;20040;-75
2021/03/27 04:02:33;;;;;;;3.50;3.20;;;;;;;;;;5092003;28;20044;-76
2021/03/27 04:05:21;;;;;;;3.95;2.47;;;;;;;;;;5091933;28;20040;-76
2021/03/27 04:07:56;;;;;;;4.57;2.65;;;;;;;;;;5092759;28;20039;-76
2021/03/27 04:10:26;;;;;;;2.97;2.38;;;;;;;;;;5093050;28;20043;-75
2021/03/27 04:13:04;;;;;;;2.15;1.95;;;;;;;;;;5092932;28;20036;-75
2021/03/27 04:15:36;;;;;;;4.13;2.53;;;;;;;;;;5093098;28;20055;-75
2021/03/27 04:18:13;;;;;;;4.32;2.25;;;;;;;;;;5091388;28;20362;-76
2021/03/27 04:21:11;;;;;;;3.40;2.88;;;;;;;;;;5091703;28;20046;-76
2021/03/27 04:23:56;;;;;;;3.63;3.20;;;;;;;;;;5087965;28;20068;-76
2021/03/27 04:26:33;;;;;;;4.45;3.30;;;;;;;;;;5093079;28;20032;-75
2021/03/27 04:29:37;;;;;;;4.10;3.50;;;;;;;;;;5096719;28;20028;-75
2021/03/27 04:32:18;;;;;;;8.70;4.00;;;;;;;;;;5091752;28;20044;-74
2021/03/27 04:34:48;;;;;;;4.50;4.07;;;;;;;;;;5096675;28;20059;-74
2021/03/27 04:37:34;;;;;;;7.35;5.72;;;;;;;;;;5096509;28;20036;-74
2021/03/27 04:40:18;;;;;;;7.22;6.53;;;;;;;;;;5096506;28;20036;-75
2021/03/27 04:43:00;;;;;;;7.60;6.47;;;;;;;;;;5096433;28;20423;-75
2021/03/27 04:45:30;;;;;;;7.80;7.00;;;;;;;;;;5096688;28;20028;-75
2021/03/27 04:48:17;;;;;;;8.35;7.53;;;;;;;;;;5096102;28;20043;-75
2021/03/27 04:51:01;;;;;;;;;;;;;;;;;;5095847;28;20093;-75
2021/03/27 04:53:37;;;;;;;11.02;7.85;;;;;;;;;;5094783;28;20369;-75
2021/03/27 04:56:17;;;;;;;8.65;7.75;;;;;;;;;;5094985;28;20054;-75
2021/03/27 04:59:03;;;;;;;10.05;7.72;;;;;;;;;;5095115;28;20067;-75
2021/03/27 05:01:34;;;;;;;9.43;7.97;;;;;;;;;;5096283;28;20044;-76
2021/03/27 05:04:09;;;;;;;9.52;7.97;;;;;;;;;;5094805;28;20031;-76
2021/03/27 05:06:39;;;;;;;8.88;7.15;;;;;;;;;;5095803;28;20039;-75
2021/03/27 05:09:12;;;;;;;8.60;7.53;;;;;;;;;;5095872;28;20382;-75
2021/03/27 05:11:54;;;;;;;9.68;8.40;;;;;;;;;;5095933;28;20036;-75
2021/03/27 05:14:41;;;;;;;8.13;7.32;;;;;;;;;;5094665;28;20089;-76
2021/03/27 05:17:22;;;;;;;8.50;6.97;;;;;;;;;;5094285;28;20139;-76
2021/03/27 05:20:13;;;;;;;7.32;6.20;;;;;;;;;;5095501;28;20058;-75
2021/03/27 05:22:42;;;;;;;7.10;6.15;;;;;;;;;;5094567;28;20421;-75
2021/03/27 05:25:26;;;;;;;6.00;5.40;;;;;;;;;;5095978;28;20067;-76
2021/03/27 05:28:09;;;;;;;6.70;5.93;;;;;;;;;;5095370;28;20484;-76
2021/03/27 05:30:51;;;;;;;5.38;4.78;;;;;;;;;;5095594;28;20039;-75
2021/03/27 05:33:46;;;;;;;5.90;4.82;;;;;;;;;;5095191;28;20047;-76
2021/03/27 05:36:53;;;;;;;5.80;4.65;;;;;;;;;;5095377;28;20028;-76
2021/03/27 05:39:26;;;;;;;5.45;4.20;;;;;;;;;;5088914;28;20048;-75
2021/03/27 05:42:13;;;;;;;4.53;3.65;;;;;;;;;;5095397;28;20054;-76
2021/03/27 05:44:52;;;;;;;6.28;3.70;;;;;;;;;;5095384;28;20032;-76
2021/03/27 05:47:42;;;;;;;5.75;3.85;;;;;;;;;;5094977;28;20047;-76
2021/03/27 05:50:25;;;;;;;5.35;3.38;;;;;;;;;;5095119;28;20027;-76
2021/03/27 05:53:24;;;;;;;4.45;3.50;;;;;;;;;;5095368;28;20032;-76
2021/03/27 05:56:20;;;;;;;5.35;3.50;;;;;;;;;;5095156;28;20070;-75
2021/03/27 05:58:49;;;;;;;4.35;3.15;;;;;;;;;;5095068;28;20028;-76
2021/03/27 06:01:29;;;;;;;3.00;2.70;;;;;;;;;;5093879;28;20413;-75
2021/03/27 06:03:59;;;;;;;3.97;3.00;;;;;;;;;;5094758;28;20449;-75
2021/03/27 06:06:49;;;;;;;5.00;3.08;;;;;;;;;;5094858;28;20055;-75
2021/03/27 06:09:37;;;;;;;3.58;2.38;;;;;;;;;;5093671;28;20054;-76
2021/03/27 06:12:16;;;;;;;4.32;2.60;;;;;;;;;;5094678;28;20028;-75
2021/03/27 06:15:08;;;;;;;3.08;2.40;;;;;;;;;;5094713;28;20047;-76
2021/03/27 06:17:52;;;;;;;6.85;2.50;;;;;;;;;;5094557;28;20036;-76
2021/03/27 06:20:33;;;;;;;4.45;2.83;;;;;;;;;;5094302;28;20036;-77
2021/03/27 06:23:30;;;;;;;4.07;2.70;;;;;;;;;;5094468;28;20032;-75
2021/03/27 06:26:15;;;;;;;;;;;;;;;;;;5094462;28;20028;-75
2021/03/27 06:28:59;;;;;;;5.88;2.30;;;;;;;;;;5091901;28;19920;-77
2021/03/27 06:31:55;;;;;;;5.35;2.50;;;;;;;;;;5094307;28;20032;-76
2021/03/27 06:35:00;;;;;;;5.07;2.45;;;;;;;;;;5094247;28;20462;-75
2021/03/27 06:37:37;;;;;;;3.42;2.35;;;;;;;;;;5093820;28;20052;-75
2021/03/27 06:40:24;;;;;;;6.57;2.63;;;;;;;;;;5094292;28;20126;-75
2021/03/27 06:43:04;;;;;;;5.30;2.40;;;;;;;;;;5094270;28;20040;-75
2021/03/27 06:45:41;;;;;;;4.43;2.25;;;;;;;;;;5094139;28;20051;-75
2021/03/27 06:48:19;;;;;;;5.60;2.30;;;;;;;;;;5092469;28;20035;-75
2021/03/27 06:51:22;;;;;;;3.45;2.03;;;;;;;;;;5092564;28;20589;-76
2021/03/27 06:54:06;;;;;;;5.60;2.20;;;;;;;;;;5092470;28;20035;-74
2021/03/27 06:56:37;;;;;;;4.03;2.22;;;;;;;;;;5091154;28;20604;-75
2021/03/27 06:59:10;;;;;;;3.72;1.90;;;;;;;;;;5091935;28;20043;-76
2021/03/27 07:02:17;;;;;;;7.03;2.35;;;;;;;;;;5091703;28;20039;-76
2021/03/27 07:05:22;;;;;;;8.53;3.03;;;;;;;;;;5090291;28;20059;-76
2021/03/27 07:08:27;;;;;;;7.20;2.75;;;;;;;;;;5093078;28;20332;-77
2021/03/27 07:11:19;;;;;;;3.55;1.98;;;;;;;;;;5094695;28;20087;-79
2021/03/27 07:14:12;;;;;;;6.90;2.03;;;;;;;;;;5095403;28;20061;-78
2021/03/27 07:17:00;;;;;;;9.88;1.83;;;;;;;;;;5095671;28;20046;-76
2021/03/27 07:19:56;;;;;;;7.43;2.03;;;;;;;;;;5094049;28;20036;-77
2021/03/27 07:22:41;;;;;;;10.85;2.75;;;;;;;;;;5095889;28;20040;-79
2021/03/27 07:25:20;;;;;;;7.70;2.45;;;;;;;;;;5095383;28;20043;-79
2021/03/27 07:28:13;;;;;;;5.25;2.00;;;;;;;;;;5097905;28;20096;-80
2021/03/27 07:30:57;;;;;;;5.47;2.75;;;;;;;;;;5098251;28;20040;-80
2021/03/27 07:33:32;;;;;;;8.05;2.53;;;;;;;;;;5097123;28;20106;-79
2021/03/27 07:36:13;;;;;;;7.28;2.33;;;;;;;;;;5076821;28;20032;-79
2021/03/27 07:38:52;;;;;;;7.60;2.55;;;;;;;;;;5095971;28;20123;-79
2021/03/27 07:41:48;;;;;;;9.57;2.42;;;;;;;;;;5097174;28;20067;-80
2021/03/27 07:44:36;;;;;;;7.70;2.88;;;;;;;;;;5096550;28;20055;-78
2021/03/27 07:47:26;;;;;;;7.00;2.67;;;;;;;;;;5092590;28;20527;-76
2021/03/27 07:50:01;;;;;;;5.43;2.03;;;;;;;;;;5093473;28;20097;-76
2021/03/27 07:52:42;;;;;;;6.90;2.37;;;;;;;;;;5093529;28;20123;-76
2021/03/27 07:55:34;;;;;;;7.95;2.70;;;;;;;;;;5093271;28;20709;-76
2021/03/27 07:58:11;;;;;;;8.82;2.47;;;;;;;;;;5093167;28;20032;-75
2021/03/27 08:00:49;;;;;;;6.75;2.13;;;;;;;;;;5092779;28;20569;-76
2021/03/27 08:03:45;;;;;;;5.07;2.50;;;;;;;;;;5096023;28;20173;-75
2021/03/27 08:06:25;;;;;;;8.10;2.85;;;;;;;;;;5097003;28;20093;-74
2021/03/27 08:08:59;;;;;;;10.80;2.55;;;;;;;;;;5096232;28;21632;-74
2021/03/27 08:11:40;;;;;;;7.72;2.60;;;;;;;;;;5096898;28;20034;-75
2021/03/27 08:14:11;;;;;;;8.23;2.72;;;;;;;;;;5097106;28;20031;-74
2021/03/27 08:16:45;;;;;;;8.15;2.60;;;;;;;;;;5096934;28;20370;-74
2021/03/27 08:19:19;;;;;;;6.35;2.78;;;;;;;;;;5096492;28;20059;-74
2021/03/27 08:22:03;;;;;;;10.73;2.72;;;;;;;;;;5096911;28;20035;-73
2021/03/27 08:24:56;;;;;;;6.00;2.33;;;;;;;;;;5096941;28;20032;-74
2021/03/27 08:27:40;;;;;;;8.05;3.00;;;;;;;;;;5096452;28;20486;-75
2021/03/27 08:30:42;;;;;;;7.50;2.47;;;;;;;;;;5096795;28;20039;-76
2021/03/27 08:33:17;;;;;;;6.43;2.30;;;;;;;;;;5096626;28;20424;-74
2021/03/27 08:36:14;;;;;;;7.35;2.47;;;;;;;;;;5096556;28;20032;-74
2021/03/27 08:39:01;;;;;;;8.82;2.38;;;;;;;;;;5084326;28;20040;-76
2021/03/27 08:41:42;;;;;;;8.30;2.95;;;;;;;;;;5096564;28;20047;-75
2021/03/27 08:44:35;;;;;;;5.40;1.95;;;;;;;;;;5096403;28;20028;-75
2021/03/27 08:47:15;;;;;;;10.40;2.13;;;;;;;;;;5095151;28;20024;-75
2021/03/27 08:50:02;;;;;;;4.05;1.50;;;;;;;;;;5096233;28;20357;-75
2021/03/27 08:53:06;;;;;;;4.82;1.20;;;;;;;;;;5096151;28;20031;-75
2021/03/27 08:55:56;;;;;;;6.57;1.33;;;;;;;;;;5094901;28;20044;-75
2021/03/27 08:58:44;;;;;;;5.40;1.42;;;;;;;;;;5095965;28;20036;-75
2021/03/27 09:01:47;;;;;;;4.10;1.30;;;;;;;;;;5096307;28;20044;-74
2021/03/27 09:04:45;;;;;;;3.53;1.40;;;;;;;;;;5095601;28;20406;-74
2021/03/27 09:07:29;;;;;;;4.68;1.15;;;;;;;;;;5096118;28;20085;-74
2021/03/27 09:10:10;;;;;;;8.63;1.77;;;;;;;;;;5096195;28;20036;-74
2021/03/27 09:13:00;;;;;;;3.35;1.30;;;;;;;;;;5095029;28;20036;-74
2021/03/27 09:15:41;;;;;;;5.07;1.35;;;;;;;;;;5095984;28;20044;-74
2021/03/27 09:18:17;;;;;;;5.60;1.60;;;;;;;;;;5095825;28;20027;-74
2021/03/27 09:20:48;;;;;;;;;;;;;;;;;;5095764;28;20119;-76
2021/03/27 09:23:28;;;;;;;6.13;1.65;;;;;;;;;;5095786;28;20301;-76
2021/03/27 09:26:05;;;;;;;4.55;1.48;;;;;;;;;;5095613;28;20821;-76
2021/03/27 09:29:10;;;;;;;5.15;1.38;;;;;;;;;;5095613;28;20036;-76
2021/03/27 09:32:04;;;;;;;5.60;1.50;;;;;;;;;;5095327;28;20056;-78
2021/03/27 09:34:41;;;;;;;6.65;2.03;;;;;;;;;;5095992;28;20032;-77
2021/03/27 09:37:39;;;;;;;4.65;1.48;;;;;;;;;;5095924;28;20135;-75
2021/03/27 09:40:16;;;;;;;6.22;1.95;;;;;;;;;;5096104;28;20400;-77
2021/03/27 09:42:47;;;;;;;4.03;1.10;;;;;;;;;;5093916;28;20173;-75
2021/03/27 09:45:28;;;;;;;6.80;0.80;;;;;;;;;;5095257;28;20028;-73
2021/03/27 09:48:34;;;;;;;3.05;0.98;;;;;;;;;;5095172;28;20028;-74
2021/03/27 09:51:20;;;;;;;2.53;0.73;;;;;;;;;;5094735;28;20032;-74
2021/03/27 09:53:58;;;;;;;1.48;0.68;;;;;;;;;;5093790;28;20089;-74
2021/03/27 09:56:48;;;;;;;1.95;0.50;;;;;;;;;;5095046;28;20637;-75
2021/03/27 09:59:25;;;;;;;1.25;0.55;;;;;;;;;;5094901;28;20454;-77
2021/03/27 10:02:17;;;;;;;0.52;0.45;;;;;;;;;;5096696;28;20040;-82
2021/03/27 10:05:14;;;;;;;0.65;0.60;;;;;;;;;;5097111;28;20032;-81
2021/03/27 10:07:47;;;;;;;4.30;0.50;;;;;;;;;;5096291;28;20524;-79
2021/03/27 10:10:33;;;;;;;0.60;0.60;;;;;;;;;;5090728;28;20029;-78
2021/03/27 10:13:23;;;;;;;0.55;0.55;;;;;;;;;;5096443;28;20452;-80
2021/03/27 10:15:54;;;;;;;0.80;0.80;;;;;;;;;;5098317;28;20080;-81
2021/03/27 10:18:41;;;;;;;0.52;0.52;;;;;;;;;;5097004;28;20028;-78
2021/03/27 10:21:23;;;;;;;0.98;0.70;;;;;;;;;;5095659;28;20069;-77
2021/03/27 10:23:57;;;;;;;2.85;0.80;;;;;;;;;;5095445;28;20024;-77
2021/03/27 10:26:43;;;;;;;2.67;0.68;;;;;;;;;;5095420;28;20035;-76
2021/03/27 10:29:41;;;;;;;1.85;0.50;;;;;;;;;;5094774;28;20462;-76
2021/03/27 10:32:31;;;;;;;0.47;0.40;;;;;;;;;;5095636;28;20074;-76
2021/03/27 10:35:02;;;;;;;2.35;0.93;;;;;;;;;;5093150;28;20031;-77
2021/03/27 10:37:27;;;;;;;11.07;2.78;;;;;;;;;;5093120;28;20043;-75
2021/03/27 10:40:23;;;;;;;2.13;0.80;;;;;;;;;;5092920;28;20036;-76
2021/03/27 10:43:21;;;;;;;2.00;1.15;;;;;;;;;;5094488;28;20035;-76
2021/03/27 10:46:07;;;;;;;2.35;0.90;;;;;;;;;;5093614;28;20059;-77
2021/03/27 10:48:45;;;;;;;;;;;;;;;;;;5096186;28;20059;-79
2021/03/27 10:51:16;;;;;;;1.45;0.63;;;;;;;;;;5096220;28;19919;-83
2021/03/27 10:54:21;;;;;;;1.55;0.90;;;;;;;;;;5097011;28;20060;-81
2021/03/27 10:56:59;;;;;;;1.05;0.60;;;;;;;;;;5097323;28;20036;-81
2021/03/27 10:59:32;;;;;;;3.17;1.23;;;;;;;;;;5097096;28;20033;-79
2021/03/27 11:02:09;;;;;;;2.22;0.95;;;;;;;;;;5096065;28;20040;-81
2021/03/27 11:05:12;;;;;;;4.60;1.30;;;;;;;;;;5097346;28;20450;-81
2021/03/27 11:07:53;;;;;;;5.32;1.30;;;;;;;;;;5097229;28;20032;-80
2021/03/27 11:10:49;;;;;;;5.72;1.52;;;;;;;;;;5082458;28;20029;-81
2021/03/27 11:13:34;;;;;;;5.30;1.75;;;;;;;;;;5074220;28;20043;-79
2021/03/27 11:16:27;;;;;;;7.72;1.80;;;;;;;;;;5074851;28;20036;-76
2021/03/27 11:19:01;;;;;;;17.17;2.40;;;;;;;;;;5074167;28;20036;-76
2021/03/27 11:21:59;;;;;;;8.52;2.55;;;;;;;;;;5074161;28;20036;-76
2021/03/27 11:24:48;;;;;;;8.35;2.55;;;;;;;;;;5075046;28;20486;-76
2021/03/27 11:27:22;;;;;;;12.90;2.40;;;;;;;;;;5074367;28;20127;-77
2021/03/27 11:30:15;;;;;;;8.30;2.50;;;;;;;;;;5073300;28;20048;-76
2021/03/27 11:33:16;;;;;;;8.68;2.78;;;;;;;;;;5073799;28;20089;-77
2021/03/27 11:35:51;;;;;;;9.20;2.33;;;;;;;;;;5072814;28;20119;-76
2021/03/27 11:38:45;;;;;;;10.15;2.25;;;;;;;;;;5071772;28;20032;-76
2021/03/27 11:41:52;;;;;;;6.43;2.60;;;;;;;;;;5073371;28;20029;-76
2021/03/27 11:44:38;;;;;;;14.02;2.90;;;;;;;;;;5073029;28;20086;-76
2021/03/27 11:48:00;;;;;;;10.40;3.10;;;;;;;;;;5073228;28;20513;-76
2021/03/27 11:50:47;;;;;;;5.63;2.20;;;;;;;;;;5083036;28;20040;-76
2021/03/27 11:53:18;;;;;;;9.02;2.47;;;;;;;;;;5090975;28;20036;-76
2021/03/27 11:55:52;;;;;;;10.63;2.25;;;;;;;;;;5076632;28;20040;-75
2021/03/27 11:58:33;;;;;;;7.03;2.22;;;;;;;;;;5072705;28;20033;-75
2021/03/27 12:01:04;;;;;;;5.38;1.25;;;;;;;;;;5055078;28;20041;-74
2021/03/27 12:03:52;;;;;;;1.75;1.00;;;;;;;;;;5073044;28;20036;-74
2021/03/27 12:06:35;;;;;;;1.98;0.70;;;;;;;;;;5072405;28;20134;-73
2021/03/27 12:09:16;;;;;;;3.38;0.98;;;;;;;;;;5072866;28;20032;-74
2021/03/27 12:12:09;;;;;;;1.42;0.80;;;;;;;;;;5072683;28;20075;-74
2021/03/27 12:15:09;;;;;;;3.55;1.38;;;;;;;;;;5072668;28;20028;-74
2021/03/27 12:17:57;;;;;;;3.90;1.20;;;;;;;;;;5054891;28;20522;-75
2021/03/27 12:20:53;;;;;;;4.50;1.75;;;;;;;;;;5084463;28;20390;-75
2021/03/27 12:23:39;;;;;;;9.63;5.53;;;;;;;;;;5093060;28;20055;-75
2021/03/27 12:26:14;;;;;;;4.20;1.90;;;;;;;;;;5092820;28;20044;-75
2021/03/27 12:28:50;;;;;;;2.73;1.00;;;;;;;;;;5092761;28;20047;-76
2021/03/27 12:31:16;;;;;;;;;;;;;;;;;;5093245;28;20290;-76
2021/03/27 12:33:44;;;;;;;3.40;1.17;;;;;;;;;;5092939;28;19965;-76
2021/03/27 12:36:24;;;;;;;2.10;1.30;;;;;;;;;;5092552;28;20406;-76
2021/03/27 12:39:07;;;;;;;4.38;1.15;;;;;;;;;;5091649;28;20122;-76
2021/03/27 12:41:47;;;;;;;4.28;1.10;;;;;;;;;;5092851;28;20036;-75
2021/03/27 12:44:31;;;;;;;2.22;0.98;;;;;;;;;;5091646;28;20440;-75
2021/03/27 12:47:16;;;;;;;1.30;0.90;;;;;;;;;;5092725;28;20035;-75
2021/03/27 12:50:20;;;;;;;1.77;1.10;;;;;;;;;;5095969;28;20482;-75
2021/03/27 12:52:53;;;;;;;3.60;1.10;;;;;;;;;;5084068;28;20044;-75
2021/03/27 12:55:34;;;;;;;1.13;0.93;;;;;;;;;;5096442;28;20032;-75
2021/03/27 12:58:24;;;;;;;1.35;0.88;;;;;;;;;;5096254;28;20040;-76
2021/03/27 13:01:19;;;;;;;2.63;1.17;;;;;;;;;;5094930;28;20066;-76
2021/03/27 13:04:13;;;;;;;4.78;1.23;;;;;;;;;;5096184;28;20111;-76
2021/03/27 13:06:41;;;;;;;2.75;0.93;;;;;;;;;;5096030;28;20126;-76
2021/03/27 13:09:13;;;;;;;2.42;0.75;;;;;;;;;;5096039;28;20044;-76
2021/03/27 13:12:00;;;;;;;2.03;0.95;;;;;;;;;;5096258;28;20039;-76
2021/03/27 13:14:41;;;;;;;3.75;1.00;;;;;;;;;;5095888;28;20032;-75
2021/03/27 13:17:16;;;;;;;4.55;1.05;;;;;;;;;;5095794;28;20040;-76
2021/03/27 13:19:48;;;;;;;3.78;1.65;;;;;;;;;;5095531;28;20036;-76
2021/03/27 13:22:55;;;;;;;2.38;1.20;;;;;;;;;;5095882;28;20031;-76
2021/03/27 13:25:26;;;;;;;2.90;1.55;;;;;;;;;;5095021;28;20135;-76
2021/03/27 13:27:59;;;;;;;4.45;1.30;;;;;;;;;;5094294;28;20123;-76
2021/03/27 13:30:49;;;;;;;3.50;1.50;;;;;;;;;;5094617;28;20024;-76
2021/03/27 13:33:39;;;;;;;4.95;1.60;;;;;;;;;;5095671;28;20032;-75
2021/03/27 13:36:13;;;;;;;7.32;3.03;;;;;;;;;;5095106;28;20040;-75
2021/03/27 13:38:45;;;;;;;5.40;2.33;;;;;;;;;;5094477;28;20036;-75
2021/03/27 13:41:47;;;;;;;9.50;2.45;;;;;;;;;;5088464;28;20059;-75
2021/03/27 13:44:34;;;;;;;7.03;1.80;;;;;;;;;;5073439;28;20047;-76
2021/03/27 13:47:12;;;;;;;12.52;3.75;;;;;;;;;;5073749;28;20036;-75
2021/03/27 13:49:48;;;;;;;8.32;3.10;;;;;;;;;;5080563;28;20123;-74
2021/03/27 13:52:26;;;;;;;5.10;2.15;;;;;;;;;;5087338;28;20081;-74
2021/03/27 13:55:16;;;;;;;4.68;1.88;;;;;;;;;;5074842;28;20123;-75
2021/03/27 13:57:56;;;;;;;6.93;2.00;;;;;;;;;;5073433;28;20185;-76
2021/03/27 14:00:27;;;;;;;7.05;1.73;;;;;;;;;;5075422;28;20075;-78
2021/03/27 14:02:59;;;;;;;7.70;1.92;;;;;;;;;;5076516;28;20041;-78
2021/03/27 14:05:43;;;;;;;5.40;1.73;;;;;;;;;;5076379;28;20043;-78
2021/03/27 14:08:17;;;;;;;6.32;1.88;;;;;;;;;;5075347;28;20058;-77
2021/03/27 14:10:58;;;;;;;3.55;1.67;;;;;;;;;;5074738;28;20029;-77
2021/03/27 14:13:41;;;;;;;5.43;2.03;;;;;;;;;;5073103;28;20055;-76
2021/03/27 14:16:09;;;;;;;7.20;2.90;;;;;;;;;;5075065;28;20044;-77
2021/03/27 14:19:17;;;;;;;6.00;2.42;;;;;;;;;;5074282;28;20033;-76
2021/03/27 14:22:14;;;;;;;4.78;1.90;;;;;;;;;;5068263;28;20094;-76
2021/03/27 14:24:52;;;;;;;9.75;3.40;;;;;;;;;;5073516;28;20036;-75
2021/03/27 14:27:46;;;;;;;8.15;2.30;;;;;;;;;;5074144;28;20418;-76
2021/03/27 14:30:31;;;;;;;5.72;1.48;;;;;;;;;;5074350;28;20119;-76
2021/03/27 14:33:06;;;;;;;9.00;2.22;;;;;;;;;;5074572;28;20051;-76
2021/03/27 14:35:44;;;;;;;9.68;2.15;;;;;;;;;;5081691;28;20119;-75
2021/03/27 14:38:43;;;;;;;7.45;2.00;;;;;;;;;;5079258;28;20040;-75
2021/03/27 14:41:29;;;;;;;7.00;2.00;;;;;;;;;;5074397;28;20036;-74
2021/03/27 14:44:16;;;;;;;6.35;1.60;;;;;;;;;;5072667;28;20032;-75
2021/03/27 14:46:59;;;;;;;3.75;1.58;;;;;;;;;;5073685;28;20074;-75
2021/03/27 14:49:43;;;;;;;5.80;1.73;;;;;;;;;;5077853;28;20028;-75
2021/03/27 14:52:19;;;;;;;7.90;2.22;;;;;;;;;;5094209;28;20043;-75
2021/03/27 14:54:59;;;;;;;4.55;1.55;;;;;;;;;;5094327;28;20032;-75
2021/03/27 14:57:30;;;;;;;3.35;1.65;;;;;;;;;;5094053;28;20043;-76
2021/03/27 15:00:03;;;;;;;6.13;1.85;;;;;;;;;;5098303;28;20096;-77
2021/03/27 15:02:36;;;;;;;6.40;1.60;;;;;;;;;;5098601;28;20036;-77
2021/03/27 15:05:23;;;;;;;3.35;1.42;;;;;;;;;;5096883;28;20047;-77
2021/03/27 15:08:16;;;;;;;5.70;1.58;;;;;;;;;;5093707;28;20059;-78
2021/03/27 15:11:18;;;;;;;5.78;1.85;;;;;;;;;;5093034;28;20490;-77
2021/03/27 15:13:44;;;;;;;6.10;1.80;;;;;;;;;;5092827;28;20036;-78
2021/03/27 15:16:36;;;;;;;5.28;2.15;;;;;;;;;;5092258;28;20020;-77
2021/03/27 15:19:20;;;;;;;5.40;1.80;;;;;;;;;;5093351;28;20044;-78
2021/03/27 15:22:06;;;;;;;6.25;2.20;;;;;;;;;;5093636;28;20035;-77
2021/03/27 15:27:15;;;;;;;9.25;2.47;;;;;;;;;;5093454;28;20043;-76
2021/03/27 15:27:33;;;;;;;5.20;1.88;;;;;;;;;;5093155;28;20036;-74
2021/03/27 15:30:20;;;;;;;4.22;1.80;;;;;;;;;;5093456;28;20441;-75
2021/03/27 15:33:11;;;;;;;8.02;1.63;;;;;;;;;;5093576;28;20387;-75
2021/03/27 15:36:00;;;;;;;4.75;1.40;;;;;;;;;;5093413;28;20157;-76
2021/03/27 15:39:07;;;;;;;4.00;1.60;;;;;;;;;;5093332;28;20396;-77
2021/03/27 15:41:41;;;;;;;4.88;1.17;;;;;;;;;;5090373;28;20051;-77
2021/03/27 15:44:19;;;;;;;6.90;1.92;;;;;;;;;;5093688;28;20481;-76
2021/03/27 15:46:44;;;;;;;4.03;1.90;;;;;;;;;;5091718;28;20036;-75
2021/03/27 15:49:09;;;;;;;9.93;3.60;;;;;;;;;;5094234;28;20040;-76
2021/03/27 15:51:42;;;;;;;4.35;1.80;;;;;;;;;;5094119;28;20039;-75
2021/03/27 15:54:07;;;;;;;1.95;1.15;;;;;;;;;;5093893;28;20111;-76
2021/03/27 15:56:48;;;;;;;3.65;1.35;;;;;;;;;;5094053;28;20517;-73
2021/03/27 15:59:20;;;;;;;2.35;1.35;;;;;;;;;;5093525;28;20036;-74
2021/03/27 16:02:01;;;;;;;3.17;1.30;;;;;;;;;;5093452;28;20470;-75
2021/03/27 16:04:52;;;;;;;4.20;1.35;;;;;;;;;;5093733;28;20035;-77
2021/03/27 16:07:21;;;;;;;1.52;0.85;;;;;;;;;;5092148;28;20062;-76
2021/03/27 16:09:59;;;;;;;2.58;1.10;;;;;;;;;;5093747;28;20123;-76
2021/03/27 16:12:37;;;;;;;2.72;1.20;;;;;;;;;;5092348;28;20032;-76